Página principal
METAR-TAF:

METAR-TAF

Aeroportos :

Hoonah, Alasca, Estados Unidos

latitude: 58-07N, longitude: 135-27W, altura: 0 m

Observação actual do tempo

O boletim foi feito há 38 minutos, às 01:56 UTC
Vento 3 kt com direcção variável
Temperatura 13°C
Humidade 62%
Pressão 1015 hPa
Visibilidade: 16.1 km
Encobertoa uma altura de 6000 ft

METAR: PAOH 230156Z AUTO VRB03KT 10SM OVC060 13/06 A2997 RMK AO2 SLP149 T01330061 PNO $

Hora: 18:34 (02:34 UTC)


TAF: em falta

Observações e previsões do tempo de mais de 4000 aeroportos (mensagens METAR e TAF).

As estações disponíveis são os pontos amarelos e vermelhos sobre o mapa.

Mova o rato sobre o mapa para ver o nome da estação.

Depois clique no ponto para visualizar as observações e previsões meteorológicas.

Para alterar o mapa : clique nos botões verdes com uma cruz preta para aumentar o zoom; no botão verde com uma pitada de zoom; ou nas setas verdes para mapas adjacentes.


METAR-TAF: